Time;durP1;ratioP1;P1;durP2;ratioP2;P2;SDS_P1;SDS_P2;PMS_P1;PMS_P2;Temp;Humidity;BMP_temperature;BMP_pressure;BME280_temperature;BME280_humidity;BME280_pressure;Samples;Min_cycle;Max_cycle;Signal;HPM_P1;HPM_P2
2023/12/04 00:01:49;;;;;;;99.90;33.70;;;1.30;99.90;;;;;;5000308;28;20266;-87
2023/12/04 00:04:14;;;;;;;96.37;33.03;;;1.30;1.00;;;;;;5012542;28;20187;-86
2023/12/04 00:06:41;;;;;;;95.67;29.97;;;1.40;99.90;;;;;;4999235;28;20555;-85
2023/12/04 00:09:07;;;;;;;84.32;31.83;;;1.40;99.90;;;;;;5010871;28;20202;-86
2023/12/04 00:11:32;;;;;;;87.37;32.77;;;1.30;1.00;;;;;;4997114;28;20206;-86
2023/12/04 00:13:59;;;;;;;60.43;21.73;;;1.30;99.90;;;;;;5011646;28;20264;-86
2023/12/04 00:16:24;;;;;;;100.35;28.40;;;1.30;1.00;;;;;;5011318;28;20219;-86
2023/12/04 00:18:50;;;;;;;97.63;32.53;;;1.40;1.00;;;;;;5013395;28;20209;-87
2023/12/04 00:21:15;;;;;;;78.40;29.10;;;1.30;1.00;;;;;;5010045;28;20249;-87
2023/12/04 00:23:41;;;;;;;83.37;30.23;;;1.30;99.90;;;;;;5009849;28;20202;-87
2023/12/04 00:26:07;;;;;;;82.50;29.13;;;1.30;1.00;;;;;;5010836;28;20225;-87
2023/12/04 00:28:35;;;;;;;75.40;28.43;;;1.30;13.20;;;;;;5012041;28;20674;-87
2023/12/04 00:31:00;;;;;;;103.22;27.23;;;1.30;21.20;;;;;;5017821;28;20175;-87
2023/12/04 00:33:26;;;;;;;78.20;28.67;;;1.20;56.20;;;;;;5013876;28;20192;-87
2023/12/04 00:35:52;;;;;;;90.07;27.60;;;1.20;1.00;;;;;;4998816;28;20199;-87
2023/12/04 00:38:17;;;;;;;74.43;28.90;;;1.20;99.90;;;;;;5008382;28;20716;-87
2023/12/04 00:40:43;;;;;;;76.40;27.63;;;1.20;99.90;;;;;;4999910;28;20176;-87
2023/12/04 00:43:08;;;;;;;79.23;27.63;;;1.20;1.00;;;;;;5014496;28;20191;-86
2023/12/04 00:45:34;;;;;;;78.23;30.97;;;1.20;99.90;;;;;;4994893;28;20653;-86
2023/12/04 00:47:59;;;;;;;75.00;27.30;;;1.10;1.00;;;;;;5009233;28;20206;-86
2023/12/04 00:50:25;;;;;;;74.97;27.47;;;1.10;25.90;;;;;;5012135;28;20725;-87
2023/12/04 00:52:50;;;;;;;73.70;24.50;;;1.20;6.00;;;;;;4996371;28;20184;-87
2023/12/04 00:55:16;;;;;;;86.83;29.30;;;1.10;99.90;;;;;;5012812;28;20244;-86
2023/12/04 00:57:44;;;;;;;78.00;28.90;;;1.10;99.90;;;;;;5015692;28;20207;-87
2023/12/04 01:00:10;;;;;;;69.93;26.20;;;1.20;99.90;;;;;;5000184;28;21866;-87
2023/12/04 01:02:36;;;;;;;72.95;30.85;;;1.10;99.90;;;;;;5012391;28;20412;-87
2023/12/04 01:05:01;;;;;;;65.63;27.80;;;1.10;1.00;;;;;;5016217;28;20186;-87
2023/12/04 01:07:27;;;;;;;76.50;29.90;;;1.20;99.90;;;;;;5012464;28;20643;-86
2023/12/04 01:09:53;;;;;;;71.13;22.27;;;1.10;99.90;;;;;;4995041;28;20183;-87
2023/12/04 01:12:18;;;;;;;76.87;26.00;;;1.20;99.90;;;;;;5003180;28;20190;-88
2023/12/04 01:14:44;;;;;;;69.97;28.03;;;1.20;1.00;;;;;;5014322;28;20183;-88
2023/12/04 01:17:09;;;;;;;70.00;27.33;;;1.20;99.90;;;;;;4993918;28;20260;-88
2023/12/04 01:19:35;;;;;;;66.20;28.00;;;1.20;99.90;;;;;;5016068;28;20253;-87
2023/12/04 01:22:01;;;;;;;60.87;24.20;;;1.10;99.90;;;;;;4998686;28;20237;-87
2023/12/04 01:24:26;;;;;;;62.97;23.47;;;1.20;99.90;;;;;;5007128;28;20187;-86
2023/12/04 01:26:52;;;;;;;65.53;25.80;;;1.20;1.00;;;;;;5017252;28;20187;-86
2023/12/04 01:29:17;;;;;;;60.93;27.80;;;1.20;99.90;;;;;;5016950;28;20256;-86
2023/12/04 01:31:43;;;;;;;68.83;24.47;;;1.10;99.90;;;;;;5015635;28;20194;-87
2023/12/04 01:34:08;;;;;;;59.97;21.93;;;1.20;99.90;;;;;;4995619;28;20270;-87
2023/12/04 01:36:34;;;;;;;55.43;25.80;;;1.20;99.90;;;;;;4997589;28;20699;-87
2023/12/04 01:38:59;;;;;;;48.70;21.00;;;1.20;99.90;;;;;;5018152;28;20824;-86
2023/12/04 01:41:25;;;;;;;48.43;17.77;;;1.30;99.90;;;;;;5017294;28;20183;-87
2023/12/04 01:43:50;;;;;;;65.90;24.37;;;1.20;99.90;;;;;;5019342;28;20187;-88
2023/12/04 01:46:17;;;;;;;55.00;25.17;;;1.20;99.90;;;;;;5018081;28;20249;-87
2023/12/04 01:48:45;;;;;;;62.03;26.80;;;1.20;8.20;;;;;;5010947;28;20261;-87
2023/12/04 01:51:12;;;;;;;49.15;23.45;;;1.20;26.90;;;;;;5015564;28;20608;-87
2023/12/04 01:53:39;;;;;;;55.85;24.05;;;1.10;99.90;;;;;;4996307;28;20651;-88
2023/12/04 01:56:05;;;;;;;50.58;24.23;;;1.10;1.00;;;;;;5018834;28;20618;-87
2023/12/04 01:58:31;;;;;;;51.05;21.80;;;1.10;1.00;;;;;;5017776;28;20586;-88
2023/12/04 02:00:57;;;;;;;51.47;25.65;;;1.10;1.00;;;;;;5009664;28;20556;-85
2023/12/04 02:03:23;;;;;;;43.57;19.67;;;1.10;99.90;;;;;;5003415;28;20179;-87
2023/12/04 02:05:50;;;;;;;49.20;23.53;;;1.10;1.00;;;;;;5016395;28;20661;-87
2023/12/04 02:08:16;;;;;;;46.80;23.73;;;1.10;99.90;;;;;;5016719;28;20466;-87
2023/12/04 02:10:42;;;;;;;42.50;20.20;;;1.10;1.00;;;;;;5013627;28;20283;-85
2023/12/04 02:13:09;;;;;;;46.10;21.70;;;1.10;99.90;;;;;;5018499;28;20191;-86
2023/12/04 02:15:34;;;;;;;44.60;20.15;;;1.00;99.90;;;;;;5016045;28;23010;-88
2023/12/04 02:18:02;;;;;;;43.63;21.43;;;1.00;1.00;;;;;;5017479;28;20227;-86
2023/12/04 02:20:32;;;;;;;41.53;22.23;;;1.00;1.00;;;;;;5011568;28;20217;-87
2023/12/04 02:22:58;;;;;;;42.70;20.60;;;1.00;1.00;;;;;;5000387;28;20202;-88
2023/12/04 02:25:23;;;;;;;48.80;19.40;;;1.00;1.00;;;;;;4995788;28;20184;-87
2023/12/04 02:27:53;;;;;;;40.87;18.40;;;1.00;1.00;;;;;;5014690;28;20211;-87
2023/12/04 02:30:23;;;;;;;34.80;17.13;;;1.00;1.00;;;;;;5017084;28;20540;-87
2023/12/04 02:32:49;;;;;;;34.25;16.65;;;1.00;99.90;;;;;;5019067;28;20180;-87
2023/12/04 02:35:20;;;;;;;37.72;20.30;;;1.00;1.00;;;;;;5019639;28;20567;-87
2023/12/04 02:37:47;;;;;;;37.30;17.77;;;1.00;1.00;;;;;;5023350;28;20206;-87
2023/12/04 02:40:14;;;;;;;29.02;17.05;;;1.00;99.90;;;;;;5017814;28;20245;-86
2023/12/04 02:42:40;;;;;;;31.90;15.77;;;1.00;99.90;;;;;;5002481;28;20190;-88
2023/12/04 02:45:06;;;;;;;36.23;19.70;;;1.00;99.90;;;;;;5024549;28;20184;-87
2023/12/04 02:47:31;;;;;;;31.85;20.50;;;1.00;1.00;;;;;;4999511;28;20294;-87
2023/12/04 02:49:57;;;;;;;30.40;16.47;;;0.90;99.90;;;;;;5016586;28;20326;-88
2023/12/04 02:52:22;;;;;;;32.13;17.90;;;0.90;14.80;;;;;;5017190;28;20253;-88
2023/12/04 02:54:48;;;;;;;26.07;14.80;;;0.90;99.90;;;;;;5002214;28;20661;-88
2023/12/04 02:57:14;;;;;;;27.40;12.83;;;0.90;1.00;;;;;;5008782;28;20219;-88
2023/12/04 02:59:39;;;;;;;33.43;18.97;;;0.90;99.90;;;;;;5001133;28;20586;-89
2023/12/04 03:02:05;;;;;;;23.67;15.30;;;0.90;99.90;;;;;;5002495;28;20244;-89
2023/12/04 03:04:31;;;;;;;29.60;16.17;;;0.90;1.00;;;;;;5003860;28;20446;-89
2023/12/04 03:06:57;;;;;;;27.70;18.07;;;0.80;1.00;;;;;;5002246;28;20191;-87
2023/12/04 03:09:22;;;;;;;28.47;16.67;;;0.80;99.90;;;;;;5020487;28;20448;-90
2023/12/04 03:11:48;;;;;;;29.37;15.70;;;0.80;99.90;;;;;;4999963;28;20190;-88
2023/12/04 03:14:14;;;;;;;25.43;15.63;;;0.80;3.30;;;;;;5002841;28;20199;-89
2023/12/04 03:16:40;;;;;;;25.83;15.27;;;0.80;1.00;;;;;;5002048;28;20493;-86
2023/12/04 03:19:06;;;;;;;28.83;14.03;;;0.80;1.00;;;;;;5003201;28;20701;-87
2023/12/04 03:21:31;;;;;;;25.10;15.10;;;0.80;1.00;;;;;;5016812;28;20443;-86
2023/12/04 03:23:57;;;;;;;20.90;12.10;;;0.90;99.90;;;;;;5002772;28;20457;-89
2023/12/04 03:26:23;;;;;;;25.90;12.70;;;0.90;27.30;;;;;;5003350;28;20187;-90
2023/12/04 03:28:49;;;;;;;22.10;11.60;;;0.90;1.00;;;;;;5000624;28;20211;-89
2023/12/04 03:31:14;;;;;;;19.57;12.50;;;0.90;1.00;;;;;;5018205;28;20214;-89
2023/12/04 03:33:40;;;;;;;19.43;12.50;;;0.80;1.00;;;;;;5022014;28;20190;-88
2023/12/04 03:36:06;;;;;;;20.40;11.67;;;0.80;1.00;;;;;;5005068;28;20233;-89
2023/12/04 03:38:32;;;;;;;23.70;12.43;;;0.80;1.00;;;;;;5016653;28;20278;-89
2023/12/04 03:40:57;;;;;;;19.57;12.50;;;0.80;1.00;;;;;;5002634;28;20270;-90
2023/12/04 03:43:23;;;;;;;20.13;12.57;;;0.80;1.00;;;;;;5004482;28;20606;-88
2023/12/04 03:45:49;;;;;;;20.00;10.80;;;0.80;99.90;;;;;;4998911;28;20670;-90
2023/12/04 03:48:14;;;;;;;22.43;12.67;;;0.80;1.00;;;;;;5003424;28;20233;-89
2023/12/04 03:50:42;;;;;;;23.20;11.87;;;0.80;99.90;;;;;;5000130;28;20289;-89
2023/12/04 03:53:08;;;;;;;20.40;11.95;;;0.80;99.90;;;;;;5017842;28;20200;-89
2023/12/04 03:55:34;;;;;;;24.20;12.90;;;0.80;1.00;;;;;;5002382;28;20206;-88
2023/12/04 03:57:59;;;;;;;20.53;11.07;;;0.80;99.90;;;;;;5014608;28;20218;-86
2023/12/04 04:00:25;;;;;;;17.67;11.00;;;0.80;99.90;;;;;;5013055;28;20236;-89
2023/12/04 04:02:51;;;;;;;20.60;11.17;;;0.80;99.90;;;;;;5001974;28;20198;-88
2023/12/04 04:05:16;;;;;;;21.90;12.93;;;0.80;99.90;;;;;;5001088;28;20179;-89
2023/12/04 04:07:42;;;;;;;19.00;10.50;;;0.70;99.90;;;;;;5014676;28;20199;-90
2023/12/04 04:10:08;;;;;;;21.90;12.50;;;0.80;1.00;;;;;;5020722;28;20183;-89
2023/12/04 04:12:34;;;;;;;18.58;13.30;;;0.80;1.00;;;;;;5017751;28;20190;-89
2023/12/04 04:15:00;;;;;;;19.60;11.93;;;0.70;99.90;;;;;;5018164;28;20291;-89
2023/12/04 04:17:26;;;;;;;21.67;11.60;;;0.70;99.90;;;;;;5023555;28;20474;-89
2023/12/04 04:19:53;;;;;;;21.60;12.10;;;0.70;99.90;;;;;;5000795;28;20446;-89
2023/12/04 04:22:22;;;;;;;20.05;12.90;;;0.70;1.00;;;;;;5015664;28;20665;-89
2023/12/04 04:24:51;;;;;;;19.73;12.38;;;0.70;99.90;;;;;;5023016;28;20784;-87
2023/12/04 04:27:16;;;;;;;21.17;11.25;;;0.70;99.90;;;;;;5000349;28;20648;-87
2023/12/04 04:29:42;;;;;;;20.20;12.57;;;0.70;51.10;;;;;;5017727;28;20286;-89
2023/12/04 04:32:07;;;;;;;21.17;12.70;;;0.80;38.50;;;;;;5017485;28;20183;-89
2023/12/04 04:34:33;;;;;;;21.73;11.40;;;0.80;1.00;;;;;;5014743;28;20661;-88
2023/12/04 04:36:59;;;;;;;19.37;12.03;;;0.80;1.00;;;;;;5002842;28;20258;-89
2023/12/04 04:39:24;;;;;;;19.37;12.07;;;0.70;1.00;;;;;;4999065;28;20191;-88
2023/12/04 04:41:50;;;;;;;16.70;10.40;;;0.70;1.00;;;;;;5014030;28;20183;-89
2023/12/04 04:44:15;;;;;;;16.97;13.87;;;0.70;1.00;;;;;;5012242;28;20191;-89
2023/12/04 04:46:41;;;;;;;15.53;10.00;;;0.60;1.00;;;;;;5000499;28;20178;-89
2023/12/04 04:49:07;;;;;;;16.70;10.30;;;0.60;1.00;;;;;;5002534;28;20216;-87
2023/12/04 04:51:34;;;;;;;16.53;11.97;;;0.60;1.00;;;;;;4998930;28;20191;-89
2023/12/04 04:54:00;;;;;;;16.83;9.93;;;0.60;1.00;;;;;;4997127;28;20640;-92
2023/12/04 04:56:26;;;;;;;16.38;12.35;;;0.60;1.00;;;;;;5021855;28;20241;-89
2023/12/04 04:58:51;;;;;;;15.60;10.33;;;0.60;99.90;;;;;;5001176;28;20229;-90
2023/12/04 05:01:17;;;;;;;14.73;9.97;;;0.50;99.90;;;;;;4997381;28;20932;-89
2023/12/04 05:03:43;;;;;;;16.37;10.77;;;0.50;99.90;;;;;;5000431;28;20185;-86
2023/12/04 05:06:09;;;;;;;15.37;8.33;;;0.60;99.90;;;;;;5001412;28;20190;-89
2023/12/04 05:08:35;;;;;;;11.15;7.70;;;0.60;99.90;;;;;;4998731;28;20476;-89
2023/12/04 05:11:00;;;;;;;18.87;10.60;;;0.60;99.90;;;;;;5004489;28;20182;-89
2023/12/04 05:13:26;;;;;;;13.80;9.17;;;0.60;99.90;;;;;;5017578;28;20190;-88
2023/12/04 05:15:52;;;;;;;20.10;9.77;;;0.60;99.90;;;;;;5004203;28;20304;-86
2023/12/04 05:18:18;;;;;;;13.63;9.70;;;0.60;99.90;;;;;;5004625;28;20285;-88
2023/12/04 05:20:43;;;;;;;17.53;10.33;;;0.60;99.90;;;;;;5000223;28;20202;-86
2023/12/04 05:23:09;;;;;;;14.90;10.37;;;0.60;99.90;;;;;;5001391;28;20198;-89
2023/12/04 05:25:35;;;;;;;13.90;10.03;;;0.60;99.90;;;;;;4998889;28;20612;-88
2023/12/04 05:28:00;;;;;;;15.30;9.73;;;0.60;69.30;;;;;;4995580;28;20203;-88
2023/12/04 05:30:26;;;;;;;16.30;11.87;;;0.60;99.90;;;;;;4994776;28;20186;-88
2023/12/04 05:32:51;;;;;;;15.63;10.50;;;0.60;99.90;;;;;;4996301;28;20183;-88
2023/12/04 05:35:17;;;;;;;15.77;12.00;;;0.60;1.00;;;;;;5005003;28;20190;-86
2023/12/04 05:37:43;;;;;;;17.03;10.33;;;0.60;38.50;;;;;;5007455;28;20874;-88
2023/12/04 05:40:10;;;;;;;14.60;10.00;;;0.70;44.10;;;;;;5001458;28;20465;-88
2023/12/04 05:42:36;;;;;;;13.60;10.40;;;0.70;25.40;;;;;;5005031;28;20269;-87
2023/12/04 05:45:02;;;;;;;14.18;9.20;;;0.70;1.00;;;;;;5007965;28;20222;-91
2023/12/04 05:47:28;;;;;;;17.15;9.60;;;0.70;52.20;;;;;;5001043;28;20207;-89
2023/12/04 05:49:54;;;;;;;18.10;9.13;;;0.70;1.00;;;;;;5000296;28;20183;-90
2023/12/04 05:52:20;;;;;;;19.45;9.98;;;0.70;1.00;;;;;;5005413;28;20190;-88
2023/12/04 05:54:46;;;;;;;12.93;8.13;;;0.80;1.00;;;;;;5003171;28;20190;-87
2023/12/04 05:57:12;;;;;;;15.00;9.60;;;0.80;1.00;;;;;;5000578;28;20219;-86
2023/12/04 05:59:37;;;;;;;17.83;11.17;;;0.80;1.00;;;;;;4995698;28;20449;-88
2023/12/04 06:02:03;;;;;;;17.27;10.67;;;0.80;1.00;;;;;;5004683;28;20179;-89
2023/12/04 06:04:29;;;;;;;14.80;10.80;;;0.80;1.00;;;;;;5006905;28;20194;-88
2023/12/04 06:06:54;;;;;;;13.30;9.07;;;0.80;1.00;;;;;;5004226;28;20183;-88
2023/12/04 06:09:20;;;;;;;15.47;9.93;;;0.90;1.00;;;;;;5006263;28;20213;-88
2023/12/04 06:11:45;;;;;;;13.10;8.83;;;0.80;1.00;;;;;;5003120;28;20192;-88
2023/12/04 06:14:11;;;;;;;13.70;9.90;;;0.90;1.00;;;;;;5004142;28;20199;-89
2023/12/04 06:16:37;;;;;;;16.40;10.33;;;0.90;99.90;;;;;;4999985;28;20607;-88
2023/12/04 06:19:05;;;;;;;15.30;11.13;;;0.90;99.90;;;;;;5008618;28;20203;-87
2023/12/04 06:21:31;;;;;;;14.25;10.20;;;0.90;99.90;;;;;;5008281;28;21156;-86
2023/12/04 06:23:58;;;;;;;13.27;9.70;;;0.90;99.90;;;;;;5005919;28;20195;-88
2023/12/04 06:26:24;;;;;;;13.73;10.65;;;0.90;99.90;;;;;;4997921;28;20446;-88
2023/12/04 06:28:50;;;;;;;11.38;7.93;;;0.90;99.90;;;;;;5015089;28;20711;-86
2023/12/04 06:31:16;;;;;;;12.90;9.60;;;0.90;99.90;;;;;;5003620;28;20190;-88
2023/12/04 06:33:42;;;;;;;12.15;8.25;;;0.90;99.90;;;;;;5007123;28;20430;-89
2023/12/04 06:36:08;;;;;;;14.38;9.57;;;0.90;99.90;;;;;;5010116;28;20707;-87
2023/12/04 06:38:39;;;;;;;12.77;9.18;;;0.90;99.90;;;;;;5007168;28;20211;-88
2023/12/04 06:41:05;;;;;;;12.93;7.47;;;0.90;99.90;;;;;;5013033;28;20210;-89
2023/12/04 06:43:31;;;;;;;14.55;9.40;;;0.90;99.90;;;;;;5009266;28;20191;-88
2023/12/04 06:45:58;;;;;;;13.48;9.38;;;1.00;99.90;;;;;;5025150;28;20236;-88
2023/12/04 06:48:24;;;;;;;13.15;9.02;;;1.00;99.90;;;;;;5022036;28;20697;-91
2023/12/04 06:50:50;;;;;;;13.43;8.40;;;1.00;99.90;;;;;;5011553;28;20282;-88
2023/12/04 06:53:16;;;;;;;11.47;7.93;;;1.00;99.90;;;;;;5007557;28;20299;-88
2023/12/04 06:55:41;;;;;;;12.33;9.70;;;1.00;99.90;;;;;;5001132;28;20504;-89
2023/12/04 06:58:07;;;;;;;15.23;9.00;;;1.00;99.90;;;;;;5004356;28;20202;-89
2023/12/04 07:00:32;;;;;;;12.77;8.67;;;1.00;99.90;;;;;;5020085;28;20183;-87
2023/12/04 07:02:58;;;;;;;12.43;9.10;;;1.10;99.90;;;;;;5023007;28;20262;-88
2023/12/04 07:05:24;;;;;;;13.43;8.90;;;1.10;99.90;;;;;;5023000;28;20589;-89
2023/12/04 07:07:49;;;;;;;12.63;8.37;;;1.10;99.90;;;;;;5019117;28;20203;-87
2023/12/04 07:10:15;;;;;;;12.20;8.60;;;1.10;99.90;;;;;;5021382;28;20191;-89
2023/12/04 07:12:42;;;;;;;13.10;8.90;;;1.10;99.90;;;;;;4999074;28;20249;-88
2023/12/04 07:15:11;;;;;;;11.43;8.30;;;1.20;99.90;;;;;;5001593;28;20192;-86
2023/12/04 07:17:38;;;;;;;13.30;8.23;;;1.40;99.90;;;;;;5022432;28;20214;-88
2023/12/04 07:20:07;;;;;;;12.18;8.25;;;1.40;99.90;;;;;;5003263;28;20796;-87
2023/12/04 07:22:33;;;;;;;12.45;8.40;;;1.50;99.90;;;;;;5021229;28;20191;-88
2023/12/04 07:24:59;;;;;;;14.60;9.83;;;1.50;89.80;;;;;;5001321;28;20183;-87
2023/12/04 07:27:24;;;;;;;12.67;9.20;;;1.50;99.90;;;;;;5016768;28;20573;-87
2023/12/04 07:29:50;;;;;;;18.87;12.03;;;1.50;86.70;;;;;;5019537;28;20199;-86
2023/12/04 07:32:15;;;;;;;14.90;9.60;;;1.50;38.10;;;;;;5017585;28;20194;-87
2023/12/04 07:34:41;;;;;;;16.47;9.60;;;1.60;48.40;;;;;;5015411;28;20198;-86
2023/12/04 07:37:07;;;;;;;22.07;12.60;;;1.60;99.70;;;;;;5020030;28;20296;-87
2023/12/04 07:39:32;;;;;;;22.02;11.95;;;1.50;99.90;;;;;;5001031;28;20265;-85
2023/12/04 07:41:58;;;;;;;19.17;11.93;;;1.50;99.90;;;;;;5015952;28;20191;-86
2023/12/04 07:44:23;;;;;;;19.50;11.83;;;1.50;99.90;;;;;;5017213;28;20198;-86
2023/12/04 07:46:49;;;;;;;18.40;11.23;;;1.50;99.90;;;;;;5020788;28;20301;-87
2023/12/04 07:49:14;;;;;;;17.87;11.23;;;1.50;99.90;;;;;;5017936;28;20211;-89
2023/12/04 07:51:40;;;;;;;16.47;11.97;;;1.50;99.90;;;;;;5000243;28;20191;-86
2023/12/04 07:54:05;;;;;;;17.47;13.30;;;1.50;99.90;;;;;;4999272;28;20191;-87
2023/12/04 07:56:31;;;;;;;19.17;11.43;;;1.40;99.90;;;;;;5009208;28;20275;-87
2023/12/04 07:58:57;;;;;;;18.63;11.17;;;1.50;99.90;;;;;;4996211;28;20374;-88
2023/12/04 08:01:24;;;;;;;15.53;11.67;;;1.50;99.90;;;;;;5016085;28;20179;-88
2023/12/04 08:03:52;;;;;;;21.70;13.25;;;1.40;99.90;;;;;;5015127;28;20805;-87
2023/12/04 08:06:20;;;;;;;16.55;12.00;;;1.40;99.90;;;;;;5013201;28;20540;-87
2023/12/04 08:08:46;;;;;;;17.77;13.35;;;1.30;99.90;;;;;;5012485;28;20736;-87
2023/12/04 08:11:11;;;;;;;19.17;12.87;;;1.30;99.90;;;;;;5014824;28;20270;-88
2023/12/04 08:13:45;;;;;;;16.40;11.63;;;1.30;99.90;;;;;;4997674;28;20570;-88
2023/12/04 08:16:17;;;;;;;24.88;14.35;;;1.30;1.00;;;;;;5017978;28;20210;-88
2023/12/04 08:18:43;;;;;;;18.77;14.85;;;1.40;99.90;;;;;;5015336;28;20277;-88
2023/12/04 08:21:09;;;;;;;23.17;14.52;;;1.30;99.90;;;;;;5013022;28;20204;-87
2023/12/04 08:23:35;;;;;;;18.85;13.18;;;1.40;99.90;;;;;;5010204;28;22336;-88
2023/12/04 08:26:01;;;;;;;21.40;12.00;;;1.40;99.90;;;;;;5014903;28;20206;-88
2023/12/04 08:28:27;;;;;;;20.90;12.50;;;1.40;99.90;;;;;;5012508;28;20202;-88
2023/12/04 08:30:52;;;;;;;22.73;13.03;;;1.40;1.00;;;;;;5017230;28;20195;-88
2023/12/04 08:33:20;;;;;;;20.40;13.47;;;1.50;99.90;;;;;;5018352;28;20187;-87
2023/12/04 08:35:45;;;;;;;18.75;11.80;;;1.50;99.90;;;;;;4998848;28;20596;-87
2023/12/04 08:38:11;;;;;;;17.23;11.37;;;1.50;99.90;;;;;;5014399;28;20231;-88
2023/12/04 08:40:36;;;;;;;17.30;10.40;;;1.60;99.90;;;;;;4998509;28;20183;-87
2023/12/04 08:43:03;;;;;;;20.20;12.73;;;1.70;99.90;;;;;;5000102;28;20734;-87
2023/12/04 08:45:29;;;;;;;22.58;12.88;;;1.80;99.90;;;;;;5014621;28;20226;-87
2023/12/04 08:47:55;;;;;;;15.57;10.48;;;1.80;99.90;;;;;;5018290;28;20234;-89
2023/12/04 08:50:21;;;;;;;19.47;12.03;;;1.80;99.90;;;;;;5015835;28;20205;-88
2023/12/04 08:52:46;;;;;;;13.70;10.40;;;1.90;99.90;;;;;;5002246;28;20413;-86
2023/12/04 08:55:12;;;;;;;20.00;12.00;;;1.90;99.90;;;;;;5016010;28;20457;-86
2023/12/04 08:57:38;;;;;;;16.63;11.60;;;2.00;99.90;;;;;;5013646;28;20269;-86
2023/12/04 09:00:06;;;;;;;15.60;9.25;;;2.00;99.90;;;;;;5002745;28;20194;-86
2023/12/04 09:02:34;;;;;;;22.27;12.73;;;2.10;75.70;;;;;;5004114;28;20245;-86
2023/12/04 09:05:00;;;;;;;16.40;11.07;;;2.10;56.20;;;;;;5008811;28;20179;-87
2023/12/04 09:07:25;;;;;;;17.35;12.35;;;2.10;26.20;;;;;;5023239;28;20457;-87
2023/12/04 09:09:51;;;;;;;16.37;10.40;;;2.10;22.40;;;;;;5008775;28;20189;-87
2023/12/04 09:12:17;;;;;;;15.10;11.30;;;2.20;13.00;;;;;;5020032;28;20278;-87
2023/12/04 09:14:43;;;;;;;15.48;11.93;;;2.30;1.00;;;;;;5003076;28;20676;-87
2023/12/04 09:17:08;;;;;;;16.27;10.70;;;2.40;1.00;;;;;;5005358;28;20203;-87
2023/12/04 09:19:34;;;;;;;15.07;10.60;;;2.40;1.00;;;;;;5002253;28;20182;-88
2023/12/04 09:22:00;;;;;;;17.73;10.83;;;2.40;1.00;;;;;;5007496;28;20699;-86
2023/12/04 09:24:27;;;;;;;17.30;10.87;;;2.40;1.00;;;;;;5003367;28;20518;-86
2023/12/04 09:26:53;;;;;;;18.50;11.98;;;2.40;1.00;;;;;;5021455;28;20427;-87
2023/12/04 09:29:23;;;;;;;16.13;12.07;;;2.40;1.00;;;;;;5004150;28;20565;-87
2023/12/04 09:31:53;;;;;;;16.00;11.93;;;2.50;1.00;;;;;;5019648;28;20442;-87
2023/12/04 09:34:20;;;;;;;22.58;12.18;;;2.40;1.00;;;;;;5004833;28;20676;-88
2023/12/04 09:36:48;;;;;;;18.90;12.95;;;2.40;1.00;;;;;;5021520;28;20210;-86
2023/12/04 09:39:16;;;;;;;16.45;12.63;;;2.50;1.00;;;;;;5034883;28;20213;-87
2023/12/04 09:41:46;;;;;;;17.83;11.18;;;2.40;1.00;;;;;;5009665;28;20179;-86
2023/12/04 09:44:12;;;;;;;19.67;12.60;;;2.50;1.00;;;;;;5015568;28;20187;-87
2023/12/04 09:46:38;;;;;;;19.27;14.20;;;2.50;1.00;;;;;;5032533;28;20194;-86
2023/12/04 09:49:05;;;;;;;20.00;16.20;;;2.40;1.00;;;;;;5001735;28;20948;-87
2023/12/04 09:51:30;;;;;;;17.17;11.98;;;2.40;1.00;;;;;;5001406;28;20244;-86
2023/12/04 09:53:59;;;;;;;22.50;12.07;;;2.50;1.00;;;;;;5022347;28;20225;-87
2023/12/04 09:56:26;;;;;;;19.30;12.93;;;2.50;1.00;;;;;;5028059;28;20234;-87
2023/12/04 09:58:58;;;;;;;18.98;12.38;;;2.50;1.00;;;;;;5005488;28;20210;-86
2023/12/04 10:01:24;;;;;;;17.88;12.52;;;2.50;1.00;;;;;;5014317;28;20261;-85
2023/12/04 10:03:56;;;;;;;16.80;11.48;;;2.50;1.00;;;;;;5008401;28;20179;-87
2023/12/04 10:06:23;;;;;;;17.75;12.65;;;2.60;1.00;;;;;;5024038;28;20262;-86
2023/12/04 10:08:49;;;;;;;15.50;10.70;;;2.50;1.00;;;;;;5015340;28;20221;-87
2023/12/04 10:11:16;;;;;;;18.58;11.13;;;2.60;1.00;;;;;;5004138;28;20191;-86
2023/12/04 10:13:42;;;;;;;17.97;11.97;;;2.60;1.00;;;;;;5016111;28;20190;-88
2023/12/04 10:16:08;;;;;;;16.07;12.20;;;2.60;1.00;;;;;;5012086;28;20290;-87
2023/12/04 10:18:34;;;;;;;16.42;11.80;;;2.60;1.00;;;;;;4999798;28;20465;-87
2023/12/04 10:21:02;;;;;;;15.63;11.87;;;2.70;1.00;;;;;;5010639;28;20795;-88
2023/12/04 10:23:41;;;;;;;16.55;12.60;;;2.50;1.00;;;;;;5011853;28;20687;-86
2023/12/04 10:26:15;;;;;;;15.70;10.30;;;2.60;1.00;;;;;;5006363;28;20194;-85
2023/12/04 10:28:59;;;;;;;15.20;11.00;;;2.80;1.00;;;;;;5007399;28;20277;-86
2023/12/04 10:31:25;;;;;;;17.80;10.63;;;2.80;1.00;;;;;;5034087;28;20191;-87
2023/12/04 10:33:57;;;;;;;17.93;11.83;;;2.80;1.00;;;;;;5012364;28;20183;-86
2023/12/04 10:36:23;;;;;;;18.00;13.15;;;2.80;1.00;;;;;;5023002;28;20238;-87
2023/12/04 10:38:59;;;;;;;13.87;9.80;;;2.70;1.00;;;;;;5001048;28;20230;-85
2023/12/04 10:41:25;;;;;;;18.35;10.73;;;2.70;1.00;;;;;;5020827;28;20218;-85
2023/12/04 10:43:51;;;;;;;23.43;14.43;;;2.80;1.00;;;;;;5007681;28;20215;-87
2023/12/04 10:46:18;;;;;;;15.70;12.63;;;2.70;1.00;;;;;;5014231;28;20194;-87
2023/12/04 10:48:45;;;;;;;15.55;10.35;;;2.60;1.00;;;;;;5020342;28;20214;-86
2023/12/04 10:51:12;;;;;;;13.32;10.50;;;2.80;1.00;;;;;;5031940;28;20197;-86
2023/12/04 10:53:40;;;;;;;13.50;10.57;;;2.80;1.00;;;;;;5006522;28;20191;-86
2023/12/04 10:56:09;;;;;;;16.33;11.35;;;2.90;1.00;;;;;;5006142;28;20213;-86
2023/12/04 10:58:39;;;;;;;16.23;13.00;;;2.80;4.00;;;;;;5019822;28;20199;-87
2023/12/04 11:01:08;;;;;;;14.95;10.88;;;2.90;44.40;;;;;;5024232;28;20182;-87
2023/12/04 11:03:47;;;;;;;18.42;11.30;;;3.00;99.90;;;;;;5000574;28;20183;-88
2023/12/04 11:06:16;;;;;;;17.50;9.90;;;3.10;99.90;;;;;;5002734;28;20279;-88
2023/12/04 11:08:45;;;;;;;22.58;11.80;;;3.30;99.90;;;;;;5001398;28;20211;-87
2023/12/04 11:11:31;;;;;;;16.85;10.80;;;3.40;99.90;;;;;;5003309;28;20262;-87
2023/12/04 11:14:01;;;;;;;21.08;11.43;;;3.30;99.90;;;;;;5007797;28;20217;-87
2023/12/04 11:16:38;;;;;;;22.27;13.68;;;3.30;99.90;;;;;;5008205;28;20305;-87
2023/12/04 11:19:18;;;;;;;21.45;14.95;;;3.30;1.00;;;;;;5003986;28;20267;-86
2023/12/04 11:21:46;;;;;;;18.85;13.65;;;3.20;29.20;;;;;;5023009;28;20179;-87
2023/12/04 11:24:12;;;;;;;20.88;13.35;;;3.00;1.00;;;;;;5015372;28;20187;-84
2023/12/04 11:26:39;;;;;;;20.58;14.65;;;2.90;1.00;;;;;;5030082;28;20257;-86
2023/12/04 11:29:06;;;;;;;20.70;14.27;;;2.70;1.00;;;;;;5026684;28;20214;-85
2023/12/04 11:31:32;;;;;;;14.90;10.73;;;2.80;36.70;;;;;;5020961;28;20252;-85
2023/12/04 11:34:04;;;;;;;18.93;12.40;;;2.80;99.90;;;;;;5020161;28;20257;-84
2023/12/04 11:36:30;;;;;;;23.65;13.13;;;2.90;99.90;;;;;;5021939;28;20612;-85
2023/12/04 11:38:58;;;;;;;20.33;12.43;;;3.00;46.40;;;;;;5025207;28;20281;-86
2023/12/04 11:41:25;;;;;;;22.35;14.30;;;3.10;1.00;;;;;;5024683;28;20433;-87
2023/12/04 11:43:51;;;;;;;22.52;13.45;;;3.00;99.90;;;;;;4999046;28;20179;-84
2023/12/04 11:46:23;;;;;;;24.33;16.20;;;3.00;99.90;;;;;;5004553;28;20273;-86
2023/12/04 11:48:49;;;;;;;23.85;16.15;;;2.80;1.00;;;;;;5028789;28;20696;-86
2023/12/04 11:51:34;;;;;;;25.35;14.18;;;2.70;99.90;;;;;;5030957;28;20585;-86
2023/12/04 11:53:59;;;;;;;27.60;16.92;;;2.50;99.90;;;;;;5026466;28;20594;-85
2023/12/04 11:56:25;;;;;;;29.57;18.10;;;2.50;1.00;;;;;;5000321;28;20282;-86
2023/12/04 11:58:50;;;;;;;30.93;20.07;;;2.50;1.00;;;;;;5028826;28;20370;-85
2023/12/04 12:01:18;;;;;;;30.70;21.87;;;2.40;1.00;;;;;;5020834;28;20197;-87
2023/12/04 12:03:43;;;;;;;36.30;20.42;;;2.30;1.00;;;;;;5012358;28;20572;-86
2023/12/04 12:06:09;;;;;;;37.23;19.50;;;2.20;1.00;;;;;;5025872;28;20206;-86
2023/12/04 12:08:35;;;;;;;35.37;17.60;;;2.20;1.00;;;;;;5026590;28;20205;-86
2023/12/04 12:11:01;;;;;;;34.70;20.23;;;2.10;1.00;;;;;;5022097;28;20194;-86
2023/12/04 12:13:27;;;;;;;36.13;22.98;;;2.00;1.00;;;;;;5020237;28;20516;-85
2023/12/04 12:15:52;;;;;;;39.17;23.10;;;2.00;1.00;;;;;;5022310;28;20594;-86
2023/12/04 12:18:18;;;;;;;29.23;18.83;;;1.90;1.00;;;;;;5018910;28;20465;-85
2023/12/04 12:20:44;;;;;;;36.40;21.90;;;1.90;1.00;;;;;;5019850;28;20215;-86
2023/12/04 12:23:09;;;;;;;40.63;18.37;;;1.90;1.00;;;;;;5021082;28;20207;-86
2023/12/04 12:25:35;;;;;;;38.17;23.70;;;1.90;1.00;;;;;;5014346;28;20568;-86
2023/12/04 12:28:07;;;;;;;37.88;21.35;;;1.90;1.00;;;;;;5012738;28;20199;-86
2023/12/04 12:30:33;;;;;;;38.35;28.40;;;1.90;1.00;;;;;;5019147;28;20183;-86
2023/12/04 12:32:59;;;;;;;38.60;19.60;;;2.00;1.00;;;;;;5019423;28;20201;-85
2023/12/04 12:35:25;;;;;;;35.03;19.47;;;2.10;1.00;;;;;;5013889;28;20632;-86
2023/12/04 12:37:53;;;;;;;32.78;20.70;;;2.20;1.00;;;;;;5003894;28;20204;-85
2023/12/04 12:40:20;;;;;;;38.30;22.90;;;2.20;1.00;;;;;;5015468;28;20217;-87